createdAt,value
2019-04-25T00:02:35.019Z,99.90
2019-04-25T00:05:16.880Z,99.90
2019-04-25T00:07:57.483Z,99.90
2019-04-25T00:10:39.164Z,99.90
2019-04-25T00:13:19.886Z,99.90
2019-04-25T00:16:01.868Z,99.90
2019-04-25T00:18:43.060Z,99.90
2019-04-25T00:27:19.424Z,99.90
2019-04-25T00:30:01.554Z,99.90
2019-04-25T00:32:43.167Z,99.90
2019-04-25T00:35:25.245Z,99.90
2019-04-25T00:38:06.136Z,99.90
2019-04-25T00:40:46.696Z,99.90
2019-04-25T00:43:27.738Z,99.90
2019-04-25T00:46:08.102Z,99.90
2019-04-25T00:48:49.771Z,99.90
2019-04-25T00:51:31.806Z,99.90
2019-04-25T00:54:12.500Z,99.90
2019-04-25T00:56:53.844Z,99.90
2019-04-25T00:59:41.853Z,99.90
2019-04-25T01:05:11.662Z,99.90
2019-04-25T01:07:59.703Z,99.90
2019-04-25T01:10:47.987Z,99.90
2019-04-25T01:13:37.384Z,99.90
2019-04-25T01:16:25.614Z,99.90
2019-04-25T01:19:13.685Z,99.90
2019-04-25T01:22:01.996Z,99.90
2019-04-25T01:24:43.872Z,99.90
2019-04-25T01:27:25.201Z,99.90
2019-04-25T01:30:06.119Z,99.90
2019-04-25T01:32:47.279Z,99.90
2019-04-25T01:41:56.169Z,99.90
2019-04-25T01:44:40.451Z,99.90
2019-04-25T01:47:21.750Z,99.90
2019-04-25T01:50:03.939Z,99.90
2019-04-25T01:52:44.909Z,99.90
2019-04-25T01:55:25.323Z,99.90
2019-04-25T01:58:06.014Z,99.90
2019-04-25T02:00:48.019Z,99.90
2019-04-25T02:03:28.899Z,99.90
2019-04-25T02:06:09.474Z,99.90
2019-04-25T02:08:50.872Z,99.90
2019-04-25T02:14:39.124Z,99.90
2019-04-25T02:17:20.140Z,99.90
2019-04-25T02:20:01.992Z,99.90
2019-04-25T02:22:44.187Z,99.90
2019-04-25T02:25:24.864Z,99.90
2019-04-25T02:34:18.464Z,99.90
2019-04-25T02:37:03.182Z,99.90
2019-04-25T02:39:30.004Z,99.90
2019-04-25T02:42:18.051Z,99.90
2019-04-25T02:48:39.579Z,99.90
2019-04-25T02:57:19.873Z,99.90
2019-04-25T03:00:45.817Z,99.90
2019-04-25T03:03:18.347Z,99.90
2019-04-25T03:06:09.370Z,99.90
2019-04-25T03:08:57.797Z,99.90
2019-04-25T03:11:26.612Z,99.90
2019-04-25T03:14:14.755Z,99.90
2019-04-25T03:17:06.318Z,99.90
2019-04-25T03:26:04.539Z,99.90
2019-04-25T03:28:53.662Z,99.90
2019-04-25T03:31:44.739Z,99.90
2019-04-25T03:34:34.918Z,99.90
2019-04-25T03:37:23.348Z,99.90
2019-04-25T03:40:11.825Z,99.90
2019-04-25T03:43:01.373Z,99.90
2019-04-25T03:45:49.599Z,99.90
2019-04-25T03:48:37.578Z,99.90
2019-04-25T03:51:25.559Z,99.90
2019-04-25T03:54:14.244Z,99.90
2019-04-25T03:57:05.297Z,99.90
2019-04-25T03:59:53.619Z,99.90
2019-04-25T04:02:44.278Z,99.90
2019-04-25T04:05:34.456Z,99.90
2019-04-25T04:08:24.190Z,99.90
2019-04-25T04:11:14.172Z,99.90
2019-04-25T04:14:03.884Z,99.90
2019-04-25T04:17:11.017Z,99.90
2019-04-25T04:20:18.271Z,99.90
2019-04-25T04:23:25.328Z,99.90
2019-04-25T04:29:08.233Z,99.90
2019-04-25T04:31:56.226Z,99.90
2019-04-25T04:34:45.537Z,99.90
2019-04-25T04:37:34.300Z,99.90
2019-04-25T04:40:22.301Z,99.90
2019-04-25T04:43:10.256Z,99.90
2019-04-25T04:45:58.486Z,99.90
2019-04-25T04:48:46.471Z,99.90
2019-04-25T04:51:34.447Z,99.90
2019-04-25T04:54:23.153Z,99.90
2019-04-25T04:57:23.094Z,99.90
2019-04-25T05:00:03.655Z,99.90
2019-04-25T05:03:11.231Z,99.90
2019-04-25T05:06:19.097Z,99.90
2019-04-25T05:12:24.054Z,99.90
2019-04-25T05:15:14.952Z,99.90
2019-04-25T05:18:03.933Z,99.90
2019-04-25T05:20:51.949Z,99.90
2019-04-25T05:23:34.240Z,99.90
2019-04-25T05:26:16.318Z,99.90
2019-04-25T05:28:58.495Z,99.90
2019-04-25T05:31:45.764Z,99.90
2019-04-25T05:34:26.864Z,99.90
2019-04-25T05:37:07.263Z,99.90
2019-04-25T05:39:48.007Z,99.90
2019-04-25T05:42:47.851Z,99.90
2019-04-25T05:48:16.282Z,99.90
2019-04-25T05:51:05.647Z,99.90
2019-04-25T05:53:55.175Z,99.90
2019-04-25T05:56:43.852Z,99.90
2019-04-25T05:59:33.741Z,99.90
2019-04-25T06:02:25.169Z,99.90
2019-04-25T06:05:13.235Z,99.90
2019-04-25T06:08:04.382Z,99.90
2019-04-25T06:11:11.675Z,99.90
2019-04-25T06:23:10.021Z,99.90
2019-04-25T06:25:57.991Z,99.90
2019-04-25T06:28:53.704Z,99.90
2019-04-25T06:31:35.753Z,99.90
2019-04-25T06:34:25.401Z,99.90
2019-04-25T06:37:13.962Z,99.90
2019-04-25T06:40:05.104Z,99.90
2019-04-25T06:42:55.262Z,99.90
2019-04-25T06:51:54.442Z,99.90
2019-04-25T06:54:43.718Z,99.90
2019-04-25T06:57:34.014Z,99.90
2019-04-25T07:00:24.372Z,99.90
2019-04-25T07:02:53.251Z,99.90
2019-04-25T07:05:43.952Z,99.90
2019-04-25T07:08:33.326Z,99.10
2019-04-25T07:11:24.852Z,98.30
2019-04-25T07:14:14.073Z,92.00
2019-04-25T07:17:02.317Z,91.70
2019-04-25T07:19:50.707Z,81.90
2019-04-25T07:22:38.819Z,75.60
2019-04-25T07:25:20.504Z,71.30
2019-04-25T07:31:28.811Z,62.80
2019-04-25T07:34:13.963Z,63.30
2019-04-25T07:36:54.416Z,62.20
2019-04-25T07:39:35.592Z,67.90
2019-04-25T07:42:17.529Z,66.30
2019-04-25T07:44:58.132Z,61.30
2019-04-25T07:47:39.023Z,59.10
2019-04-25T07:50:19.665Z,61.20
2019-04-25T07:53:00.108Z,57.90
2019-04-25T07:55:41.160Z,58.70
2019-04-25T07:58:34.064Z,59.60
2019-04-25T08:01:05.156Z,63.80
2019-04-25T08:03:45.931Z,57.90
2019-04-25T08:06:27.648Z,58.20
2019-04-25T08:09:09.034Z,59.40
2019-04-25T08:11:38.281Z,64.60
2019-04-25T08:14:46.692Z,66.20
2019-04-25T08:17:54.077Z,65.20
2019-04-25T08:20:43.424Z,61.40
2019-04-25T08:23:25.167Z,63.50
2019-04-25T08:26:05.952Z,64.60
2019-04-25T08:28:54.612Z,66.90
2019-04-25T08:31:30.370Z,66.80
2019-04-25T08:34:11.951Z,67.10
2019-04-25T08:36:54.301Z,66.90
2019-04-25T08:42:24.991Z,67.80
2019-04-25T08:45:06.285Z,67.50
2019-04-25T08:47:47.199Z,66.50
2019-04-25T08:53:44.968Z,73.10
2019-04-25T08:56:29.667Z,67.00
2019-04-25T08:59:37.283Z,68.50
2019-04-25T09:02:32.370Z,68.80
2019-04-25T09:05:33.347Z,73.70
2019-04-25T09:08:15.229Z,70.80
2019-04-25T09:10:56.223Z,79.60
2019-04-25T09:13:38.642Z,82.70
2019-04-25T09:16:20.616Z,81.20
2019-04-25T09:19:01.055Z,84.80
2019-04-25T09:21:47.720Z,79.40
2019-04-25T09:24:24.705Z,87.40
2019-04-25T09:27:05.407Z,80.20
2019-04-25T09:29:46.544Z,84.90
2019-04-25T09:32:28.575Z,81.40
2019-04-25T09:35:10.420Z,80.50
2019-04-25T09:37:51.294Z,84.20
2019-04-25T09:40:31.766Z,83.70
2019-04-25T09:43:03.615Z,86.30
2019-04-25T09:46:11.276Z,84.50
2019-04-25T09:49:18.378Z,84.60
2019-04-25T09:52:13.370Z,88.20
2019-04-25T09:55:47.188Z,79.60
2019-04-25T09:58:36.464Z,86.20
2019-04-25T10:04:34.706Z,83.90
2019-04-25T10:07:24.307Z,80.90
2019-04-25T10:10:13.527Z,79.80
2019-04-25T10:13:04.112Z,78.20
2019-04-25T10:19:08.879Z,79.50
2019-04-25T10:24:40.256Z,73.80
2019-04-25T10:27:21.272Z,73.70
2019-04-25T10:30:14.594Z,79.20
2019-04-25T10:32:45.380Z,78.00
2019-04-25T10:35:27.192Z,72.50
2019-04-25T10:38:07.863Z,71.50
2019-04-25T10:40:48.679Z,67.20
2019-04-25T10:43:29.514Z,66.90
2019-04-25T10:46:10.599Z,68.80
2019-04-25T10:48:54.010Z,66.40
2019-04-25T10:51:34.322Z,63.90
2019-04-25T10:54:15.201Z,65.90
2019-04-25T10:56:56.520Z,65.10
2019-04-25T10:59:36.892Z,64.00
2019-04-25T11:02:17.964Z,63.60
2019-04-25T11:05:05.360Z,63.20
2019-04-25T11:07:46.577Z,60.00
2019-04-25T11:10:27.795Z,61.20
2019-04-25T11:13:08.543Z,60.70
2019-04-25T11:15:49.760Z,62.60
2019-04-25T11:18:30.660Z,61.10
2019-04-25T11:21:11.003Z,61.50
2019-04-25T11:23:54.024Z,60.50
2019-04-25T11:26:35.143Z,63.30
2019-04-25T11:29:16.076Z,63.40
2019-04-25T11:31:56.672Z,62.60
2019-04-25T11:34:37.017Z,60.50
2019-04-25T11:37:18.479Z,60.90
2019-04-25T11:40:05.700Z,61.40
2019-04-25T11:42:48.221Z,61.40
2019-04-25T11:45:29.612Z,62.10
2019-04-25T11:48:10.674Z,60.00
2019-04-25T11:50:52.459Z,61.60
2019-04-25T11:53:33.911Z,59.80
2019-04-25T11:56:15.112Z,60.80
2019-04-25T11:58:56.246Z,58.50
2019-04-25T12:01:37.504Z,58.30
2019-04-25T12:04:17.991Z,58.50
2019-04-25T12:06:58.579Z,58.20
2019-04-25T12:09:39.203Z,59.70
2019-04-25T12:12:19.927Z,55.90
2019-04-25T12:15:00.461Z,54.30
2019-04-25T12:17:41.508Z,54.50
2019-04-25T12:20:22.020Z,54.00
2019-04-25T12:23:08.507Z,53.10
2019-04-25T12:25:46.248Z,54.10
2019-04-25T12:28:26.964Z,53.50
2019-04-25T12:31:07.707Z,53.70
2019-04-25T12:33:49.063Z,54.00
2019-04-25T12:36:31.046Z,53.80
2019-04-25T12:39:13.807Z,52.60
2019-04-25T12:41:56.056Z,53.40
2019-04-25T12:47:54.740Z,52.90
2019-04-25T12:50:35.200Z,52.70
2019-04-25T12:53:16.162Z,54.40
2019-04-25T12:55:57.431Z,52.90
2019-04-25T12:58:38.723Z,50.90
2019-04-25T13:01:19.087Z,50.40
2019-04-25T13:03:59.905Z,49.70
2019-04-25T13:06:40.784Z,50.30
2019-04-25T13:09:21.257Z,51.70
2019-04-25T13:12:02.027Z,50.00
2019-04-25T13:14:42.531Z,50.50
2019-04-25T13:17:24.127Z,50.10
2019-04-25T13:20:05.627Z,50.10
2019-04-25T13:22:47.059Z,51.90
2019-04-25T13:25:27.659Z,54.00
2019-04-25T13:31:21.310Z,54.60
2019-04-25T13:34:05.959Z,53.80
2019-04-25T13:36:47.155Z,52.00
2019-04-25T13:39:27.780Z,52.10
2019-04-25T13:42:08.885Z,50.50
2019-04-25T13:47:35.936Z,50.90
2019-04-25T13:50:16.666Z,53.50
2019-04-25T13:52:57.220Z,53.20
2019-04-25T13:55:37.471Z,52.30
2019-04-25T13:58:18.289Z,52.90
2019-04-25T14:00:59.344Z,52.20
2019-04-25T14:03:39.964Z,52.50
2019-04-25T14:06:21.286Z,54.60
2019-04-25T14:09:03.266Z,53.70
2019-04-25T14:11:44.235Z,55.10
2019-04-25T14:14:25.118Z,55.10
2019-04-25T14:17:25.743Z,56.90
2019-04-25T14:20:26.579Z,58.70
2019-04-25T14:23:09.232Z,59.60
2019-04-25T14:25:50.535Z,62.50
2019-04-25T14:28:31.780Z,63.50
2019-04-25T14:31:30.369Z,60.80
2019-04-25T14:33:58.039Z,55.60
2019-04-25T14:36:38.904Z,54.90
2019-04-25T14:39:22.627Z,54.50
2019-04-25T14:42:04.468Z,54.90
2019-04-25T14:44:45.192Z,54.90
2019-04-25T14:47:26.252Z,59.30
2019-04-25T14:50:06.817Z,55.50
2019-04-25T14:52:47.703Z,54.40
2019-04-25T14:55:35.525Z,59.20
2019-04-25T15:04:18.091Z,55.30
2019-04-25T15:07:06.427Z,53.40
2019-04-25T15:09:54.423Z,54.70
2019-04-25T15:12:42.471Z,53.30
2019-04-25T15:15:30.431Z,54.90
2019-04-25T15:18:18.540Z,53.70
2019-04-25T15:24:15.328Z,53.20
2019-04-25T15:27:03.584Z,52.80
2019-04-25T15:45:04.021Z,53.20
2019-04-25T15:50:53.995Z,53.80
2019-04-25T15:53:35.074Z,54.10
2019-04-25T15:56:15.591Z,54.50
2019-04-25T15:58:56.275Z,55.30
2019-04-25T16:01:36.873Z,56.10
2019-04-25T16:04:17.655Z,54.90
2019-04-25T16:06:58.809Z,55.50
2019-04-25T16:09:39.348Z,54.70
2019-04-25T16:12:19.794Z,54.10
2019-04-25T16:15:00.505Z,52.10
2019-04-25T16:17:41.443Z,52.50
2019-04-25T16:20:22.703Z,52.30
2019-04-25T16:23:03.962Z,52.90
2019-04-25T16:25:45.123Z,53.60
2019-04-25T16:28:26.550Z,53.50
2019-04-25T16:31:10.243Z,52.20
2019-04-25T16:33:51.347Z,51.80
2019-04-25T16:36:32.500Z,54.10
2019-04-25T16:39:18.543Z,52.90
2019-04-25T16:41:59.279Z,53.20
2019-04-25T16:44:41.167Z,52.90
2019-04-25T16:47:23.469Z,53.50
2019-04-25T16:50:04.133Z,53.50
2019-04-25T16:52:44.968Z,52.60
2019-04-25T16:55:26.184Z,52.40
2019-04-25T16:58:07.209Z,53.20
2019-04-25T17:00:52.893Z,52.60
2019-04-25T17:03:34.096Z,52.90
2019-04-25T17:06:17.856Z,53.30
2019-04-25T17:08:58.899Z,54.30
2019-04-25T17:11:40.047Z,57.50
2019-04-25T17:14:26.947Z,63.30
2019-04-25T17:17:26.513Z,64.40
2019-04-25T17:23:18.267Z,69.70
2019-04-25T17:25:59.097Z,70.40
2019-04-25T17:28:41.703Z,71.50
2019-04-25T17:31:42.637Z,73.10
2019-04-25T17:34:43.173Z,74.80
2019-04-25T17:37:46.015Z,76.20
2019-04-25T17:40:30.038Z,77.40
2019-04-25T17:43:11.509Z,80.00
2019-04-25T17:45:52.437Z,82.60
2019-04-25T17:48:34.071Z,83.20
2019-04-25T17:51:18.186Z,86.80
2019-04-25T17:53:59.140Z,86.30
2019-04-25T17:56:40.904Z,87.00
2019-04-25T17:59:21.443Z,88.80
2019-04-25T18:02:02.628Z,90.60
2019-04-25T18:04:43.401Z,92.40
2019-04-25T18:07:24.262Z,94.90
2019-04-25T18:10:07.198Z,95.40
2019-04-25T18:12:48.396Z,96.50
2019-04-25T18:18:56.702Z,99.70
2019-04-25T18:21:37.115Z,99.90
2019-04-25T18:24:37.302Z,99.90
2019-04-25T18:27:22.354Z,99.90
2019-04-25T18:30:03.182Z,99.90
2019-04-25T18:35:41.665Z,99.90
2019-04-25T18:44:20.016Z,99.90
2019-04-25T18:47:01.051Z,99.90
2019-04-25T18:49:43.323Z,99.90
2019-04-25T18:52:43.445Z,99.90
2019-04-25T18:58:26.768Z,99.90
2019-04-25T19:07:30.392Z,99.90
2019-04-25T19:13:13.975Z,99.90
2019-04-25T19:16:01.975Z,99.90
2019-04-25T19:18:51.344Z,99.90
2019-04-25T19:21:41.547Z,99.90
2019-04-25T19:24:30.123Z,99.90
2019-04-25T19:27:24.038Z,99.90
2019-04-25T19:35:58.609Z,99.90
2019-04-25T19:38:46.653Z,99.90
2019-04-25T19:41:54.011Z,99.90
2019-04-25T19:44:42.359Z,99.90
2019-04-25T19:47:30.418Z,99.90
2019-04-25T19:50:11.460Z,99.90
2019-04-25T19:52:41.337Z,99.90
2019-04-25T19:55:29.926Z,99.90
2019-04-25T19:58:17.896Z,99.90
2019-04-25T20:01:06.375Z,99.90
2019-04-25T20:10:30.556Z,99.90
2019-04-25T20:13:19.133Z,99.90
2019-04-25T20:16:07.478Z,99.90
2019-04-25T20:18:55.727Z,99.90
2019-04-25T20:21:44.588Z,99.90
2019-04-25T20:24:33.700Z,99.90
2019-04-25T20:27:21.935Z,99.90
2019-04-25T20:30:10.355Z,99.90
2019-04-25T20:32:39.205Z,99.90
2019-04-25T20:35:27.213Z,99.90
2019-04-25T20:38:15.823Z,99.90
2019-04-25T20:41:03.947Z,99.90
2019-04-25T20:43:52.867Z,99.90
2019-04-25T20:46:41.976Z,99.90
2019-04-25T20:49:23.020Z,99.90
2019-04-25T20:52:04.181Z,99.90
2019-04-25T20:54:44.982Z,99.90
2019-04-25T20:57:25.276Z,99.90
2019-04-25T21:00:06.205Z,99.90
2019-04-25T21:02:48.336Z,99.90
2019-04-25T21:05:28.829Z,99.90
2019-04-25T21:08:09.372Z,99.90
2019-04-25T21:10:50.691Z,99.90
2019-04-25T21:13:57.952Z,99.90
2019-04-25T21:16:58.610Z,99.90
2019-04-25T21:19:43.891Z,99.90
2019-04-25T21:22:25.193Z,99.90
2019-04-25T21:25:06.580Z,99.90
2019-04-25T21:27:46.860Z,99.90
2019-04-25T21:30:27.948Z,99.90
2019-04-25T21:33:08.990Z,99.90
2019-04-25T21:35:49.515Z,99.90
2019-04-25T21:38:31.247Z,99.90
2019-04-25T21:41:30.905Z,99.90
2019-04-25T21:44:12.160Z,99.90
2019-04-25T21:46:53.668Z,99.90
2019-04-25T21:49:35.693Z,99.90
2019-04-25T21:52:16.407Z,99.90
2019-04-25T21:54:57.896Z,99.90
2019-04-25T21:57:39.363Z,99.90
2019-04-25T22:03:27.464Z,99.90
2019-04-25T22:06:08.826Z,99.90
2019-04-25T22:08:50.166Z,99.90
2019-04-25T22:11:31.286Z,99.90
2019-04-25T22:14:12.990Z,99.90
2019-04-25T22:16:54.187Z,99.90
2019-04-25T22:19:36.658Z,99.90
2019-04-25T22:22:18.121Z,99.90
2019-04-25T22:25:00.444Z,99.90
2019-04-25T22:27:41.756Z,99.90
2019-04-25T22:30:22.733Z,99.90
2019-04-25T22:36:06.082Z,99.90
2019-04-25T22:39:07.338Z,99.90
2019-04-25T22:41:49.993Z,99.90
2019-04-25T22:44:32.165Z,99.90
2019-04-25T22:47:12.775Z,99.90
2019-04-25T22:49:53.573Z,99.90
2019-04-25T22:52:34.251Z,99.90
2019-04-25T22:55:15.100Z,99.90
2019-04-25T22:57:56.515Z,99.90
2019-04-25T23:00:38.271Z,99.90
2019-04-25T23:06:26.161Z,99.90
2019-04-25T23:09:08.161Z,99.90
2019-04-25T23:11:48.896Z,99.90
2019-04-25T23:14:30.368Z,99.90
2019-04-25T23:17:11.509Z,99.90
2019-04-25T23:19:52.554Z,99.90
2019-04-25T23:22:33.208Z,99.90
2019-04-25T23:25:15.709Z,99.90
2019-04-25T23:33:52.580Z,99.90
2019-04-25T23:36:34.017Z,99.90
2019-04-25T23:39:15.445Z,99.90
2019-04-25T23:41:57.022Z,99.90
2019-04-25T23:44:38.210Z,99.90
2019-04-25T23:47:19.070Z,99.90
2019-04-25T23:49:59.592Z,99.90
2019-04-25T23:52:40.587Z,99.90
2019-04-25T23:55:21.248Z,99.90
2019-04-25T23:58:02.267Z,99.90
